sensor_id;sensor_type;location;lat;lon;timestamp;pressure;altitude;pressure_sealevel;temperature;humidity
28665;BME280;15850;47.524;7.814;2022-12-29T00:02:22;97582.75;;;3.53;100.00
28665;BME280;15850;47.524;7.814;2022-12-29T00:04:49;97584.22;;;3.65;100.00
28665;BME280;15850;47.524;7.814;2022-12-29T00:07:14;97586.63;;;3.47;100.00
28665;BME280;15850;47.524;7.814;2022-12-29T00:09:40;97570.63;;;3.56;100.00
28665;BME280;15850;47.524;7.814;2022-12-29T00:12:05;97568.94;;;3.60;100.00
28665;BME280;15850;47.524;7.814;2022-12-29T00:14:32;97296.41;;;1.93;100.00
28665;BME280;15850;47.524;7.814;2022-12-29T00:16:58;97557.94;;;3.89;100.00
28665;BME280;15850;47.524;7.814;2022-12-29T00:19:23;97285.84;;;2.34;100.00
28665;BME280;15850;47.524;7.814;2022-12-29T00:21:49;97161.94;;;1.61;100.00
28665;BME280;15850;47.524;7.814;2022-12-29T00:24:16;97569.56;;;4.17;100.00
28665;BME280;15850;47.524;7.814;2022-12-29T00:26:42;97529.94;;;3.90;100.00
28665;BME280;15850;47.524;7.814;2022-12-29T00:29:08;97573.94;;;4.27;100.00
28665;BME280;15850;47.524;7.814;2022-12-29T00:31:35;97357.22;;;2.87;100.00
28665;BME280;15850;47.524;7.814;2022-12-29T00:34:00;97359.41;;;2.85;100.00
28665;BME280;15850;47.524;7.814;2022-12-29T00:36:28;97374.47;;;2.99;100.00
28665;BME280;15850;47.524;7.814;2022-12-29T00:38:59;97568.53;;;4.27;100.00
28665;BME280;15850;47.524;7.814;2022-12-29T00:41:26;97548.03;;;4.31;100.00
28665;BME280;15850;47.524;7.814;2022-12-29T00:43:52;97444.59;;;3.63;100.00
28665;BME280;15850;47.524;7.814;2022-12-29T00:46:17;97576.66;;;4.55;100.00
28665;BME280;15850;47.524;7.814;2022-12-29T00:48:44;97569.28;;;4.60;100.00
28665;BME280;15850;47.524;7.814;2022-12-29T00:51:10;97563.25;;;4.63;100.00
28665;BME280;15850;47.524;7.814;2022-12-29T00:53:35;97568.38;;;4.51;100.00
28665;BME280;15850;47.524;7.814;2022-12-29T00:56:01;97337.56;;;3.05;100.00
28665;BME280;15850;47.524;7.814;2022-12-29T00:58:27;97378.31;;;3.26;100.00
28665;BME280;15850;47.524;7.814;2022-12-29T01:00:52;97564.75;;;4.56;100.00
28665;BME280;15850;47.524;7.814;2022-12-29T01:03:25;97527.47;;;4.35;100.00
28665;BME280;15850;47.524;7.814;2022-12-29T01:05:53;97556.47;;;4.66;100.00
28665;BME280;15850;47.524;7.814;2022-12-29T01:08:19;97553.91;;;4.47;100.00
28665;BME280;15850;47.524;7.814;2022-12-29T01:10:44;97453.50;;;3.91;100.00
28665;BME280;15850;47.524;7.814;2022-12-29T01:13:10;97483.09;;;4.19;100.00
28665;BME280;15850;47.524;7.814;2022-12-29T01:15:36;97349.94;;;3.20;100.00
28665;BME280;15850;47.524;7.814;2022-12-29T01:18:01;97463.66;;;3.94;100.00
28665;BME280;15850;47.524;7.814;2022-12-29T01:20:27;97495.44;;;4.34;100.00
28665;BME280;15850;47.524;7.814;2022-12-29T01:22:54;97539.63;;;4.97;100.00
28665;BME280;15850;47.524;7.814;2022-12-29T01:25:20;97554.81;;;4.92;100.00
28665;BME280;15850;47.524;7.814;2022-12-29T01:27:45;97503.78;;;4.74;100.00
28665;BME280;15850;47.524;7.814;2022-12-29T01:30:12;97450.13;;;4.86;100.00
28665;BME280;15850;47.524;7.814;2022-12-29T01:32:37;97500.25;;;7.26;100.00
28665;BME280;15850;47.524;7.814;2022-12-29T01:35:03;97499.28;;;6.78;100.00
28665;BME280;15850;47.524;7.814;2022-12-29T01:37:29;97516.97;;;6.27;100.00
28665;BME280;15850;47.524;7.814;2022-12-29T01:39:57;97555.94;;;6.35;100.00
28665;BME280;15850;47.524;7.814;2022-12-29T01:42:24;97522.63;;;6.57;100.00
28665;BME280;15850;47.524;7.814;2022-12-29T01:44:53;97453.19;;;8.12;86.43
28665;BME280;15850;47.524;7.814;2022-12-29T01:47:28;97521.50;;;8.65;90.83
28665;BME280;15850;47.524;7.814;2022-12-29T01:49:58;97548.91;;;9.89;76.02
28665;BME280;15850;47.524;7.814;2022-12-29T01:52:26;97479.53;;;9.92;69.34
28665;BME280;15850;47.524;7.814;2022-12-29T01:54:54;97538.84;;;10.35;70.45
28665;BME280;15850;47.524;7.814;2022-12-29T01:57:25;97544.84;;;10.77;62.13
28665;BME280;15850;47.524;7.814;2022-12-29T01:59:54;97442.97;;;10.14;62.70
28665;BME280;15850;47.524;7.814;2022-12-29T02:02:22;97537.47;;;10.78;61.05
28665;BME280;15850;47.524;7.814;2022-12-29T02:04:48;97531.34;;;10.69;68.40
28665;BME280;15850;47.524;7.814;2022-12-29T02:07:19;97499.63;;;10.48;61.63
28665;BME280;15850;47.524;7.814;2022-12-29T02:09:47;97510.75;;;10.55;63.04
28665;BME280;15850;47.524;7.814;2022-12-29T02:12:14;97535.97;;;9.40;80.16
28665;BME280;15850;47.524;7.814;2022-12-29T02:14:41;97527.69;;;8.36;91.04
28665;BME280;15850;47.524;7.814;2022-12-29T02:17:13;97531.13;;;7.16;100.00
28665;BME280;15850;47.524;7.814;2022-12-29T02:23:19;97489.34;;;6.30;100.00
28665;BME280;15850;47.524;7.814;2022-12-29T02:26:10;97463.88;;;5.52;100.00
28665;BME280;15850;47.524;7.814;2022-12-29T02:29:08;97532.13;;;5.75;100.00
28665;BME280;15850;47.524;7.814;2022-12-29T02:31:44;97488.59;;;5.45;100.00
28665;BME280;15850;47.524;7.814;2022-12-29T02:34:22;97545.53;;;6.11;100.00
28665;BME280;15850;47.524;7.814;2022-12-29T02:36:58;97543.03;;;6.23;100.00
28665;BME280;15850;47.524;7.814;2022-12-29T02:39:34;97531.66;;;6.04;100.00
28665;BME280;15850;47.524;7.814;2022-12-29T02:42:09;97539.63;;;6.09;100.00
28665;BME280;15850;47.524;7.814;2022-12-29T02:44:51;97538.03;;;6.08;100.00
28665;BME280;15850;47.524;7.814;2022-12-29T02:47:27;97483.47;;;5.66;100.00
28665;BME280;15850;47.524;7.814;2022-12-29T02:49:58;97533.91;;;6.10;100.00
28665;BME280;15850;47.524;7.814;2022-12-29T02:52:31;97306.00;;;4.61;100.00
28665;BME280;15850;47.524;7.814;2022-12-29T02:54:58;97492.22;;;5.63;100.00
28665;BME280;15850;47.524;7.814;2022-12-29T02:57:32;97396.63;;;5.02;100.00
28665;BME280;15850;47.524;7.814;2022-12-29T03:00:03;97529.00;;;5.59;100.00
28665;BME280;15850;47.524;7.814;2022-12-29T03:02:54;97469.53;;;5.19;100.00
28665;BME280;15850;47.524;7.814;2022-12-29T03:05:41;97536.56;;;5.48;100.00
28665;BME280;15850;47.524;7.814;2022-12-29T03:08:16;97516.19;;;5.42;100.00
28665;BME280;15850;47.524;7.814;2022-12-29T03:10:50;97454.38;;;5.01;100.00
28665;BME280;15850;47.524;7.814;2022-12-29T03:13:23;97520.44;;;5.34;100.00
28665;BME280;15850;47.524;7.814;2022-12-29T03:15:56;97395.16;;;4.51;100.00
28665;BME280;15850;47.524;7.814;2022-12-29T03:18:33;97530.00;;;5.40;100.00
28665;BME280;15850;47.524;7.814;2022-12-29T03:21:07;97447.84;;;4.79;100.00
28665;BME280;15850;47.524;7.814;2022-12-29T03:23:36;97532.53;;;5.37;100.00
28665;BME280;15850;47.524;7.814;2022-12-29T03:26:08;97530.47;;;5.42;100.00
28665;BME280;15850;47.524;7.814;2022-12-29T03:28:38;97462.97;;;4.89;100.00
28665;BME280;15850;47.524;7.814;2022-12-29T03:31:06;97519.56;;;5.25;100.00
28665;BME280;15850;47.524;7.814;2022-12-29T03:33:35;97534.53;;;5.31;100.00
28665;BME280;15850;47.524;7.814;2022-12-29T03:36:05;97495.19;;;5.08;100.00
28665;BME280;15850;47.524;7.814;2022-12-29T03:38:35;97517.97;;;5.24;100.00
28665;BME280;15850;47.524;7.814;2022-12-29T03:41:07;97521.69;;;5.59;100.00
28665;BME280;15850;47.524;7.814;2022-12-29T03:43:33;97403.84;;;4.92;100.00
28665;BME280;15850;47.524;7.814;2022-12-29T03:45:59;97511.47;;;5.48;100.00
28665;BME280;15850;47.524;7.814;2022-12-29T03:48:24;97399.41;;;4.88;100.00
28665;BME280;15850;47.524;7.814;2022-12-29T03:50:54;97522.63;;;5.55;100.00
28665;BME280;15850;47.524;7.814;2022-12-29T03:53:20;97515.25;;;5.69;100.00
28665;BME280;15850;47.524;7.814;2022-12-29T03:55:46;97508.28;;;5.46;100.00
28665;BME280;15850;47.524;7.814;2022-12-29T03:58:11;97511.06;;;5.32;100.00
28665;BME280;15850;47.524;7.814;2022-12-29T04:01:03;97472.38;;;5.14;100.00
28665;BME280;15850;47.524;7.814;2022-12-29T04:03:31;97433.03;;;4.90;100.00
28665;BME280;15850;47.524;7.814;2022-12-29T04:05:58;97444.84;;;4.81;100.00
28665;BME280;15850;47.524;7.814;2022-12-29T04:08:24;97474.75;;;5.15;100.00
28665;BME280;15850;47.524;7.814;2022-12-29T04:10:50;97495.97;;;5.31;100.00
28665;BME280;15850;47.524;7.814;2022-12-29T04:13:17;97498.09;;;5.42;100.00
28665;BME280;15850;47.524;7.814;2022-12-29T04:15:43;97419.13;;;4.97;100.00
28665;BME280;15850;47.524;7.814;2022-12-29T04:18:09;97370.84;;;4.64;100.00
28665;BME280;15850;47.524;7.814;2022-12-29T04:20:34;97473.19;;;5.14;100.00
28665;BME280;15850;47.524;7.814;2022-12-29T04:23:06;97504.06;;;5.53;100.00
28665;BME280;15850;47.524;7.814;2022-12-29T04:25:34;97508.88;;;5.65;100.00
28665;BME280;15850;47.524;7.814;2022-12-29T04:28:00;97508.78;;;5.79;100.00
28665;BME280;15850;47.524;7.814;2022-12-29T04:30:48;97505.13;;;5.75;100.00
28665;BME280;15850;47.524;7.814;2022-12-29T04:33:20;97498.88;;;5.65;100.00
28665;BME280;15850;47.524;7.814;2022-12-29T04:35:46;97492.00;;;5.59;100.00
28665;BME280;15850;47.524;7.814;2022-12-29T04:38:14;97472.66;;;5.35;100.00
28665;BME280;15850;47.524;7.814;2022-12-29T04:40:42;97435.28;;;5.19;100.00
28665;BME280;15850;47.524;7.814;2022-12-29T04:43:09;97496.25;;;5.52;100.00
28665;BME280;15850;47.524;7.814;2022-12-29T04:45:46;97508.88;;;5.65;100.00
28665;BME280;15850;47.524;7.814;2022-12-29T04:48:24;97499.31;;;5.59;100.00
28665;BME280;15850;47.524;7.814;2022-12-29T04:51:05;97497.38;;;5.51;100.00
28665;BME280;15850;47.524;7.814;2022-12-29T04:53:37;97185.50;;;3.40;100.00
28665;BME280;15850;47.524;7.814;2022-12-29T04:56:04;97496.63;;;5.59;100.00
28665;BME280;15850;47.524;7.814;2022-12-29T04:58:29;97406.69;;;4.87;100.00
28665;BME280;15850;47.524;7.814;2022-12-29T05:00:55;97372.19;;;4.76;100.00
28665;BME280;15850;47.524;7.814;2022-12-29T05:03:24;97510.97;;;5.68;100.00
28665;BME280;15850;47.524;7.814;2022-12-29T05:05:53;97502.19;;;6.16;100.00
28665;BME280;15850;47.524;7.814;2022-12-29T05:08:18;97506.09;;;6.50;100.00
28665;BME280;15850;47.524;7.814;2022-12-29T05:10:46;97039.69;;;3.21;100.00
28665;BME280;15850;47.524;7.814;2022-12-29T05:13:12;97509.22;;;5.95;100.00
28665;BME280;15850;47.524;7.814;2022-12-29T05:15:38;97505.00;;;6.11;100.00
28665;BME280;15850;47.524;7.814;2022-12-29T05:18:04;97506.84;;;6.42;100.00
28665;BME280;15850;47.524;7.814;2022-12-29T05:20:29;97495.00;;;7.21;100.00
28665;BME280;15850;47.524;7.814;2022-12-29T05:22:56;97481.25;;;7.61;100.00
28665;BME280;15850;47.524;7.814;2022-12-29T05:25:22;97295.53;;;7.68;93.92
28665;BME280;15850;47.524;7.814;2022-12-29T05:28:05;97439.50;;;8.68;96.07
28665;BME280;15850;47.524;7.814;2022-12-29T05:30:40;97366.72;;;8.49;88.78
28665;BME280;15850;47.524;7.814;2022-12-29T05:33:06;97001.09;;;6.40;85.92
28665;BME280;15850;47.524;7.814;2022-12-29T05:35:31;97483.44;;;9.36;91.76
28665;BME280;15850;47.524;7.814;2022-12-29T05:37:57;97209.78;;;7.51;92.30
28665;BME280;15850;47.524;7.814;2022-12-29T05:40:23;97483.56;;;9.40;89.89
28665;BME280;15850;47.524;7.814;2022-12-29T05:42:49;97153.97;;;7.17;89.42
28665;BME280;15850;47.524;7.814;2022-12-29T05:45:37;97408.91;;;9.34;84.78
28665;BME280;15850;47.524;7.814;2022-12-29T05:48:12;97473.06;;;9.84;83.35
28665;BME280;15850;47.524;7.814;2022-12-29T05:50:57;97408.59;;;9.48;83.65
28665;BME280;15850;47.524;7.814;2022-12-29T05:53:31;97398.72;;;9.31;84.18
28665;BME280;15850;47.524;7.814;2022-12-29T05:55:57;97465.81;;;9.88;82.57
28665;BME280;15850;47.524;7.814;2022-12-29T05:58:22;97315.94;;;8.91;82.96
28665;BME280;15850;47.524;7.814;2022-12-29T06:00:50;97425.28;;;9.83;79.65
28665;BME280;15850;47.524;7.814;2022-12-29T06:03:16;97419.16;;;9.86;79.54
28665;BME280;15850;47.524;7.814;2022-12-29T06:05:41;97157.75;;;8.54;74.10
28665;BME280;15850;47.524;7.814;2022-12-29T06:08:07;97466.31;;;10.51;77.50
28665;BME280;15850;47.524;7.814;2022-12-29T06:10:33;97378.53;;;10.14;73.92
28665;BME280;15850;47.524;7.814;2022-12-29T06:13:03;97449.09;;;10.60;73.61
28665;BME280;15850;47.524;7.814;2022-12-29T06:15:30;97422.81;;;10.39;75.34
28665;BME280;15850;47.524;7.814;2022-12-29T06:17:57;97462.53;;;10.80;72.03
28665;BME280;15850;47.524;7.814;2022-12-29T06:20:22;97411.72;;;10.44;73.54
28665;BME280;15850;47.524;7.814;2022-12-29T06:22:48;97447.88;;;10.85;72.32
28665;BME280;15850;47.524;7.814;2022-12-29T06:25:15;97446.91;;;10.77;74.46
28665;BME280;15850;47.524;7.814;2022-12-29T06:27:42;97405.78;;;10.54;74.90
28665;BME280;15850;47.524;7.814;2022-12-29T06:30:10;97449.50;;;10.86;72.29
28665;BME280;15850;47.524;7.814;2022-12-29T06:32:37;97437.13;;;11.17;70.30
28665;BME280;15850;47.524;7.814;2022-12-29T06:35:06;97302.53;;;10.05;71.68
28665;BME280;15850;47.524;7.814;2022-12-29T06:37:35;97413.56;;;10.80;72.08
28665;BME280;15850;47.524;7.814;2022-12-29T06:40:01;97435.81;;;10.98;71.78
28665;BME280;15850;47.524;7.814;2022-12-29T06:42:35;97433.63;;;10.76;75.33
28665;BME280;15850;47.524;7.814;2022-12-29T06:45:37;97441.56;;;10.69;74.59
28665;BME280;15850;47.524;7.814;2022-12-29T06:48:03;97425.91;;;10.78;72.30
28665;BME280;15850;47.524;7.814;2022-12-29T06:50:30;97398.09;;;10.56;71.57
28665;BME280;15850;47.524;7.814;2022-12-29T06:52:55;97432.28;;;10.70;72.00
28665;BME280;15850;47.524;7.814;2022-12-29T06:55:21;97440.41;;;10.82;70.58
28665;BME280;15850;47.524;7.814;2022-12-29T06:57:46;97443.50;;;10.68;71.31
28665;BME280;15850;47.524;7.814;2022-12-29T07:00:13;97454.63;;;10.63;72.55
28665;BME280;15850;47.524;7.814;2022-12-29T07:02:38;97442.53;;;10.89;69.92
28665;BME280;15850;47.524;7.814;2022-12-29T07:05:04;97232.78;;;9.32;71.62
28665;BME280;15850;47.524;7.814;2022-12-29T07:07:31;97383.25;;;10.42;71.16
28665;BME280;15850;47.524;7.814;2022-12-29T07:09:58;97345.13;;;10.01;71.46
28665;BME280;15850;47.524;7.814;2022-12-29T07:12:23;97221.13;;;9.20;71.82
28665;BME280;15850;47.524;7.814;2022-12-29T07:14:49;97473.00;;;10.66;72.54
28665;BME280;15850;47.524;7.814;2022-12-29T07:17:14;97281.53;;;9.41;73.16
28665;BME280;15850;47.524;7.814;2022-12-29T07:19:40;97491.47;;;10.73;72.89
28665;BME280;15850;47.524;7.814;2022-12-29T07:22:06;97207.97;;;8.97;69.18
28665;BME280;15850;47.524;7.814;2022-12-29T07:24:32;97457.75;;;10.90;70.49
28665;BME280;15850;47.524;7.814;2022-12-29T07:26:58;97335.53;;;9.67;72.62
28665;BME280;15850;47.524;7.814;2022-12-29T07:29:24;97384.31;;;9.88;74.66
28665;BME280;15850;47.524;7.814;2022-12-29T07:31:49;97429.38;;;10.01;73.74
28665;BME280;15850;47.524;7.814;2022-12-29T07:34:15;97366.06;;;9.52;76.98
28665;BME280;15850;47.524;7.814;2022-12-29T07:36:40;97498.34;;;10.09;81.12
28665;BME280;15850;47.524;7.814;2022-12-29T07:39:06;97359.50;;;9.40;77.16
28665;BME280;15850;47.524;7.814;2022-12-29T07:41:33;97489.91;;;10.35;76.16
28665;BME280;15850;47.524;7.814;2022-12-29T07:44:01;97273.56;;;8.99;76.54
28665;BME280;15850;47.524;7.814;2022-12-29T07:46:58;97460.78;;;10.35;74.39
28665;BME280;15850;47.524;7.814;2022-12-29T07:49:24;97502.69;;;10.59;74.85
28665;BME280;15850;47.524;7.814;2022-12-29T07:51:50;97471.06;;;10.42;74.58
28665;BME280;15850;47.524;7.814;2022-12-29T07:54:15;97468.25;;;10.51;74.08
28665;BME280;15850;47.524;7.814;2022-12-29T07:56:42;97487.72;;;10.65;73.80
28665;BME280;15850;47.524;7.814;2022-12-29T07:59:08;97504.81;;;10.78;72.11
28665;BME280;15850;47.524;7.814;2022-12-29T08:01:33;97511.66;;;10.60;73.04
28665;BME280;15850;47.524;7.814;2022-12-29T08:03:59;97527.97;;;10.84;70.15
28665;BME280;15850;47.524;7.814;2022-12-29T08:06:24;97511.63;;;10.84;70.42
28665;BME280;15850;47.524;7.814;2022-12-29T08:08:50;97388.28;;;10.27;65.95
28665;BME280;15850;47.524;7.814;2022-12-29T08:11:15;97071.50;;;8.23;67.39
28665;BME280;15850;47.524;7.814;2022-12-29T08:13:42;97435.69;;;10.67;66.35
28665;BME280;15850;47.524;7.814;2022-12-29T08:16:08;97403.13;;;10.30;68.43
28665;BME280;15850;47.524;7.814;2022-12-29T08:18:33;97503.38;;;11.21;67.66
28665;BME280;15850;47.524;7.814;2022-12-29T08:21:01;97519.78;;;11.37;65.80
28665;BME280;15850;47.524;7.814;2022-12-29T08:23:27;97304.25;;;10.10;65.29
28665;BME280;15850;47.524;7.814;2022-12-29T08:25:57;97532.91;;;11.47;66.73
28665;BME280;15850;47.524;7.814;2022-12-29T08:28:22;97532.88;;;11.59;65.05
28665;BME280;15850;47.524;7.814;2022-12-29T08:30:49;97519.25;;;11.59;64.76
28665;BME280;15850;47.524;7.814;2022-12-29T08:33:15;97463.56;;;11.16;64.55
28665;BME280;15850;47.524;7.814;2022-12-29T08:35:40;97531.56;;;11.69;65.61
28665;BME280;15850;47.524;7.814;2022-12-29T08:38:06;97542.41;;;11.81;64.31
28665;BME280;15850;47.524;7.814;2022-12-29T08:40:31;97543.53;;;11.80;65.85
28665;BME280;15850;47.524;7.814;2022-12-29T08:42:57;97468.41;;;11.51;63.89
28665;BME280;15850;47.524;7.814;2022-12-29T08:45:22;97547.56;;;11.98;63.38
28665;BME280;15850;47.524;7.814;2022-12-29T08:47:49;97207.59;;;9.84;62.79
28665;BME280;15850;47.524;7.814;2022-12-29T08:50:15;97342.16;;;10.71;62.50
28665;BME280;15850;47.524;7.814;2022-12-29T08:52:41;97552.13;;;11.94;66.83
28665;BME280;15850;47.524;7.814;2022-12-29T08:55:07;97545.63;;;11.71;66.11
28665;BME280;15850;47.524;7.814;2022-12-29T08:57:32;97559.09;;;12.08;63.92
28665;BME280;15850;47.524;7.814;2022-12-29T09:00:11;97539.47;;;11.86;65.96
28665;BME280;15850;47.524;7.814;2022-12-29T09:02:37;97549.34;;;12.07;68.00
28665;BME280;15850;47.524;7.814;2022-12-29T09:05:05;97543.84;;;11.91;67.95
28665;BME280;15850;47.524;7.814;2022-12-29T09:07:30;97503.13;;;11.54;69.29
28665;BME280;15850;47.524;7.814;2022-12-29T09:09:56;97502.66;;;11.80;67.89
28665;BME280;15850;47.524;7.814;2022-12-29T09:12:21;97556.91;;;12.13;67.43
28665;BME280;15850;47.524;7.814;2022-12-29T09:14:47;97551.56;;;12.17;68.91
28665;BME280;15850;47.524;7.814;2022-12-29T09:17:12;97509.25;;;11.79;68.88
28665;BME280;15850;47.524;7.814;2022-12-29T09:19:38;97546.84;;;12.02;68.51
28665;BME280;15850;47.524;7.814;2022-12-29T09:22:05;97549.16;;;11.99;68.55
28665;BME280;15850;47.524;7.814;2022-12-29T09:24:30;97290.94;;;10.33;67.76
28665;BME280;15850;47.524;7.814;2022-12-29T09:26:56;97270.03;;;10.09;69.76
28665;BME280;15850;47.524;7.814;2022-12-29T09:29:22;97448.88;;;11.33;69.14
28665;BME280;15850;47.524;7.814;2022-12-29T09:31:47;97536.91;;;11.93;67.75
28665;BME280;15850;47.524;7.814;2022-12-29T09:34:13;97234.16;;;10.03;68.07
28665;BME280;15850;47.524;7.814;2022-12-29T09:36:38;97543.81;;;12.03;70.37
28665;BME280;15850;47.524;7.814;2022-12-29T09:39:05;97435.94;;;11.30;69.03
28665;BME280;15850;47.524;7.814;2022-12-29T09:41:36;97558.84;;;12.13;69.07
28665;BME280;15850;47.524;7.814;2022-12-29T09:44:08;97493.06;;;11.70;69.05
28665;BME280;15850;47.524;7.814;2022-12-29T09:46:40;97556.47;;;12.11;69.03
28665;BME280;15850;47.524;7.814;2022-12-29T09:49:15;97369.53;;;10.91;70.19
28665;BME280;15850;47.524;7.814;2022-12-29T09:51:48;97573.13;;;12.22;68.03
28665;BME280;15850;47.524;7.814;2022-12-29T09:54:24;97538.78;;;12.05;66.80
28665;BME280;15850;47.524;7.814;2022-12-29T09:56:55;97573.41;;;12.49;64.10
28665;BME280;15850;47.524;7.814;2022-12-29T09:59:24;97582.38;;;12.33;67.72
28665;BME280;15850;47.524;7.814;2022-12-29T10:01:57;97578.94;;;12.36;67.03
28665;BME280;15850;47.524;7.814;2022-12-29T10:04:26;97577.59;;;12.30;66.46
28665;BME280;15850;47.524;7.814;2022-12-29T10:06:56;97588.53;;;12.30;66.92
28665;BME280;15850;47.524;7.814;2022-12-29T10:09:31;97580.50;;;12.37;69.48
28665;BME280;15850;47.524;7.814;2022-12-29T10:12:09;97568.63;;;12.30;67.55
28665;BME280;15850;47.524;7.814;2022-12-29T10:14:47;97571.00;;;12.31;68.49
28665;BME280;15850;47.524;7.814;2022-12-29T10:20:28;97562.41;;;12.45;66.48
28665;BME280;15850;47.524;7.814;2022-12-29T10:23:10;97452.66;;;11.88;67.62
28665;BME280;15850;47.524;7.814;2022-12-29T10:25:41;97540.75;;;12.36;67.21
28665;BME280;15850;47.524;7.814;2022-12-29T10:28:17;97556.91;;;12.61;66.06
28665;BME280;15850;47.524;7.814;2022-12-29T10:30:46;97415.19;;;11.69;66.23
28665;BME280;15850;47.524;7.814;2022-12-29T10:33:15;97546.69;;;12.74;65.61
28665;BME280;15850;47.524;7.814;2022-12-29T10:35:43;97542.47;;;12.76;65.36
28665;BME280;15850;47.524;7.814;2022-12-29T10:38:15;97552.47;;;12.88;64.03
28665;BME280;15850;47.524;7.814;2022-12-29T10:40:44;97407.91;;;11.89;62.77
28665;BME280;15850;47.524;7.814;2022-12-29T10:43:19;97413.88;;;12.11;63.01
28665;BME280;15850;47.524;7.814;2022-12-29T10:45:47;97464.06;;;12.41;62.47
28665;BME280;15850;47.524;7.814;2022-12-29T10:48:20;97490.84;;;12.52;64.29
28665;BME280;15850;47.524;7.814;2022-12-29T10:51:05;97539.66;;;12.88;62.19
28665;BME280;15850;47.524;7.814;2022-12-29T10:53:34;97506.69;;;12.81;61.33
28665;BME280;15850;47.524;7.814;2022-12-29T10:56:12;97330.25;;;11.83;62.09
28665;BME280;15850;47.524;7.814;2022-12-29T10:58:41;97533.47;;;13.27;62.08
28665;BME280;15850;47.524;7.814;2022-12-29T11:01:09;97421.69;;;12.63;62.28
28665;BME280;15850;47.524;7.814;2022-12-29T11:03:57;97517.59;;;13.32;61.80
28665;BME280;15850;47.524;7.814;2022-12-29T11:06:27;97505.75;;;13.09;62.62
28665;BME280;15850;47.524;7.814;2022-12-29T11:08:56;97481.78;;;12.83;60.54
28665;BME280;15850;47.524;7.814;2022-12-29T11:11:26;97515.22;;;12.96;60.96
28665;BME280;15850;47.524;7.814;2022-12-29T11:13:57;97435.69;;;12.27;61.62
28665;BME280;15850;47.524;7.814;2022-12-29T11:16:27;97381.69;;;11.85;62.04
28665;BME280;15850;47.524;7.814;2022-12-29T11:18:53;97414.56;;;12.08;62.69
28665;BME280;15850;47.524;7.814;2022-12-29T11:21:27;97511.69;;;12.60;62.67
28665;BME280;15850;47.524;7.814;2022-12-29T11:23:56;97504.13;;;12.37;62.70
28665;BME280;15850;47.524;7.814;2022-12-29T11:26:22;97498.84;;;12.44;64.06
28665;BME280;15850;47.524;7.814;2022-12-29T11:29:20;97517.22;;;12.63;62.84
28665;BME280;15850;47.524;7.814;2022-12-29T11:31:48;97370.59;;;11.62;64.67
28665;BME280;15850;47.524;7.814;2022-12-29T11:34:18;97448.69;;;12.33;64.67
28665;BME280;15850;47.524;7.814;2022-12-29T11:36:45;97531.94;;;12.59;64.86
28665;BME280;15850;47.524;7.814;2022-12-29T11:39:24;97509.31;;;12.42;64.11
28665;BME280;15850;47.524;7.814;2022-12-29T11:41:52;97435.44;;;11.84;67.20
28665;BME280;15850;47.524;7.814;2022-12-29T11:44:19;97489.97;;;12.16;67.69
28665;BME280;15850;47.524;7.814;2022-12-29T11:46:48;97386.75;;;11.55;67.51
28665;BME280;15850;47.524;7.814;2022-12-29T11:49:20;97500.53;;;12.33;66.75
28665;BME280;15850;47.524;7.814;2022-12-29T11:51:49;97497.34;;;12.47;65.93
28665;BME280;15850;47.524;7.814;2022-12-29T11:54:18;97499.03;;;12.52;65.87
28665;BME280;15850;47.524;7.814;2022-12-29T11:56:45;97487.50;;;12.58;64.50
28665;BME280;15850;47.524;7.814;2022-12-29T11:59:36;97457.06;;;12.76;64.29
28665;BME280;15850;47.524;7.814;2022-12-29T12:02:15;97468.72;;;12.92;61.15
28665;BME280;15850;47.524;7.814;2022-12-29T12:04:45;97380.50;;;12.68;62.08
28665;BME280;15850;47.524;7.814;2022-12-29T12:07:13;97473.03;;;13.48;62.77
28665;BME280;15850;47.524;7.814;2022-12-29T12:09:43;97414.59;;;13.17;63.23
28665;BME280;15850;47.524;7.814;2022-12-29T12:12:21;97418.06;;;13.33;62.52
28665;BME280;15850;47.524;7.814;2022-12-29T12:14:54;97443.78;;;13.71;60.42
28665;BME280;15850;47.524;7.814;2022-12-29T12:17:38;97417.75;;;13.58;59.49
28665;BME280;15850;47.524;7.814;2022-12-29T12:20:16;97436.47;;;13.56;61.43
28665;BME280;15850;47.524;7.814;2022-12-29T12:22:47;97392.34;;;12.96;59.53
28665;BME280;15850;47.524;7.814;2022-12-29T12:25:19;97437.59;;;12.97;61.40
28665;BME280;15850;47.524;7.814;2022-12-29T12:27:51;97427.53;;;12.81;62.96
28665;BME280;15850;47.524;7.814;2022-12-29T12:30:21;97455.09;;;12.92;63.02
28665;BME280;15850;47.524;7.814;2022-12-29T12:32:51;97443.13;;;12.81;62.39
28665;BME280;15850;47.524;7.814;2022-12-29T12:35:26;97439.47;;;12.73;62.27
28665;BME280;15850;47.524;7.814;2022-12-29T12:38:12;97426.66;;;12.77;63.10
28665;BME280;15850;47.524;7.814;2022-12-29T12:41:02;97396.06;;;12.49;62.54
28665;BME280;15850;47.524;7.814;2022-12-29T12:43:41;97168.53;;;11.09;61.37
28665;BME280;15850;47.524;7.814;2022-12-29T12:46:31;97432.00;;;12.89;63.40
28665;BME280;15850;47.524;7.814;2022-12-29T12:49:21;97420.09;;;12.78;62.92
28665;BME280;15850;47.524;7.814;2022-12-29T12:52:03;97421.66;;;12.99;63.77
28665;BME280;15850;47.524;7.814;2022-12-29T12:54:44;97434.94;;;13.00;59.71
28665;BME280;15850;47.524;7.814;2022-12-29T12:57:17;97429.69;;;13.11;61.11
28665;BME280;15850;47.524;7.814;2022-12-29T12:59:52;97430.66;;;13.38;62.46
28665;BME280;15850;47.524;7.814;2022-12-29T13:02:33;97391.53;;;13.34;60.69
28665;BME280;15850;47.524;7.814;2022-12-29T13:05:13;97396.28;;;13.37;60.58
28665;BME280;15850;47.524;7.814;2022-12-29T13:07:49;97220.28;;;12.30;57.01
28665;BME280;15850;47.524;7.814;2022-12-29T13:10:22;97419.22;;;13.52;58.19
28665;BME280;15850;47.524;7.814;2022-12-29T13:13:16;97365.19;;;13.03;58.82
28665;BME280;15850;47.524;7.814;2022-12-29T13:15:55;97382.28;;;13.19;60.17
28665;BME280;15850;47.524;7.814;2022-12-29T13:18:30;97420.59;;;13.23;59.94
28665;BME280;15850;47.524;7.814;2022-12-29T13:21:02;97412.03;;;13.05;58.47
28665;BME280;15850;47.524;7.814;2022-12-29T13:23:34;97394.69;;;12.78;62.46
28665;BME280;15850;47.524;7.814;2022-12-29T13:26:10;97394.34;;;12.79;62.57